createdAt,value
2018-04-27T00:00:02.604Z,74.98
2018-04-27T00:02:30.009Z,74.89
2018-04-27T00:04:57.589Z,74.81
2018-04-27T00:07:24.996Z,75.07
2018-04-27T00:09:52.400Z,75.19
2018-04-27T00:12:19.831Z,75.14
2018-04-27T00:14:47.232Z,75.41
2018-04-27T00:17:14.648Z,75.14
2018-04-27T00:19:42.060Z,75.25
2018-04-27T00:22:09.501Z,75.19
2018-04-27T00:24:36.904Z,75.13
2018-04-27T00:27:04.338Z,75.50
2018-04-27T00:29:31.773Z,75.06
2018-04-27T00:31:59.180Z,75.31
2018-04-27T00:34:26.957Z,75.09
2018-04-27T00:36:54.319Z,74.95
2018-04-27T00:39:21.720Z,74.77
2018-04-27T00:41:49.144Z,74.50
2018-04-27T00:44:16.549Z,74.12
2018-04-27T00:46:43.973Z,74.04
2018-04-27T00:49:11.380Z,73.74
2018-04-27T00:51:39.117Z,73.93
2018-04-27T00:54:06.522Z,73.77
2018-04-27T00:56:33.924Z,73.71
2018-04-27T00:59:01.351Z,73.52
2018-04-27T01:01:28.747Z,73.38
2018-04-27T01:03:56.148Z,73.28
2018-04-27T01:06:24.375Z,73.08
2018-04-27T01:08:51.789Z,73.04
2018-04-27T01:11:19.204Z,73.20
2018-04-27T01:13:46.608Z,73.34
2018-04-27T01:16:14.311Z,73.20
2018-04-27T01:18:41.725Z,73.64
2018-04-27T01:21:09.136Z,73.74
2018-04-27T01:23:36.810Z,73.57
2018-04-27T01:26:04.209Z,73.57
2018-04-27T01:28:31.612Z,73.59
2018-04-27T01:30:59.029Z,73.61
2018-04-27T01:33:26.608Z,73.69
2018-04-27T01:35:54.012Z,73.84
2018-04-27T01:38:21.423Z,75.08
2018-04-27T01:40:48.835Z,74.50
2018-04-27T01:43:16.279Z,74.92
2018-04-27T01:45:43.692Z,74.70
2018-04-27T01:48:11.113Z,74.73
2018-04-27T01:50:38.532Z,75.00
2018-04-27T01:53:05.959Z,75.09
2018-04-27T01:55:33.387Z,75.45
2018-04-27T01:58:00.800Z,75.28
2018-04-27T02:00:28.216Z,75.60
2018-04-27T02:02:55.644Z,75.89
2018-04-27T02:05:23.068Z,75.23
2018-04-27T02:07:50.503Z,75.23
2018-04-27T02:10:17.908Z,75.18
2018-04-27T02:12:45.340Z,75.28
2018-04-27T02:15:12.768Z,75.40
2018-04-27T02:17:40.203Z,75.10
2018-04-27T02:20:07.616Z,75.42
2018-04-27T02:22:35.036Z,75.15
2018-04-27T02:25:02.445Z,75.31
2018-04-27T02:27:29.999Z,76.04
2018-04-27T02:29:57.414Z,75.72
2018-04-27T02:32:24.829Z,75.73
2018-04-27T02:34:52.258Z,75.70
2018-04-27T02:37:19.664Z,75.97
2018-04-27T02:39:47.077Z,75.84
2018-04-27T02:42:14.479Z,75.98
2018-04-27T02:44:41.887Z,75.93
2018-04-27T02:47:09.300Z,76.03
2018-04-27T02:49:36.713Z,76.23
2018-04-27T02:52:04.133Z,76.08
2018-04-27T02:54:31.526Z,76.20
2018-04-27T02:56:58.940Z,77.00
2018-04-27T02:59:26.363Z,77.03
2018-04-27T03:01:53.764Z,76.75
2018-04-27T03:04:21.171Z,76.65
2018-04-27T03:06:48.601Z,76.47
2018-04-27T03:09:16.014Z,76.43
2018-04-27T03:11:43.417Z,76.55
2018-04-27T03:14:10.853Z,76.92
2018-04-27T03:16:38.260Z,76.54
2018-04-27T03:19:05.671Z,76.66
2018-04-27T03:21:33.112Z,76.39
2018-04-27T03:24:00.679Z,76.78
2018-04-27T03:26:27.945Z,76.37
2018-04-27T03:28:55.348Z,76.18
2018-04-27T03:31:23.016Z,76.30
2018-04-27T03:33:50.433Z,77.06
2018-04-27T03:36:17.837Z,76.67
2018-04-27T03:38:45.254Z,76.34
2018-04-27T03:41:12.677Z,76.16
2018-04-27T03:43:40.475Z,76.24
2018-04-27T03:46:07.897Z,76.78
2018-04-27T03:48:35.307Z,76.81
2018-04-27T03:51:02.737Z,76.66
2018-04-27T03:53:30.157Z,76.46
2018-04-27T03:55:57.568Z,76.18
2018-04-27T03:58:25.237Z,76.20
2018-04-27T04:01:04.889Z,76.22
2018-04-27T04:06:35.799Z,76.27
2018-04-27T04:09:03.467Z,76.72
2018-04-27T04:11:30.868Z,76.00
2018-04-27T04:13:58.276Z,76.10
2018-04-27T04:16:25.699Z,75.97
2018-04-27T04:18:53.115Z,76.77
2018-04-27T04:21:20.529Z,76.77
2018-04-27T04:23:48.100Z,77.04
2018-04-27T04:26:15.516Z,76.76
2018-04-27T04:28:42.940Z,76.44
2018-04-27T04:31:10.386Z,76.48
2018-04-27T04:33:37.804Z,76.56
2018-04-27T04:36:05.215Z,76.91
2018-04-27T04:38:32.794Z,76.23
2018-04-27T04:41:00.219Z,76.07
2018-04-27T04:43:27.627Z,75.76
2018-04-27T04:45:55.051Z,75.76
2018-04-27T04:48:22.464Z,76.04
2018-04-27T04:50:49.883Z,75.65
2018-04-27T04:53:17.548Z,75.79
2018-04-27T04:55:44.968Z,74.91
2018-04-27T04:58:12.368Z,74.32
2018-04-27T05:00:39.771Z,73.95
2018-04-27T05:03:07.190Z,73.85
2018-04-27T05:05:34.852Z,72.86
2018-04-27T05:08:02.252Z,71.89
2018-04-27T05:10:29.678Z,71.09
2018-04-27T05:12:57.097Z,69.11
2018-04-27T05:15:24.499Z,69.31
2018-04-27T05:17:51.930Z,66.76
2018-04-27T05:20:18.803Z,66.11
2018-04-27T05:22:46.220Z,65.09
2018-04-27T05:25:13.628Z,63.11
2018-04-27T05:27:41.060Z,62.71
2018-04-27T05:30:08.463Z,61.82
2018-04-27T05:32:35.888Z,57.86
2018-04-27T05:35:03.326Z,57.97
2018-04-27T05:37:30.718Z,55.45
2018-04-27T05:39:58.152Z,54.06
2018-04-27T05:42:25.919Z,53.01
2018-04-27T05:44:53.320Z,51.88
2018-04-27T05:47:20.739Z,52.59
2018-04-27T05:49:48.143Z,52.21
2018-04-27T05:52:15.715Z,51.45
2018-04-27T05:54:43.125Z,48.16
2018-04-27T05:57:10.524Z,45.52
2018-04-27T05:59:37.948Z,46.72
2018-04-27T06:02:05.347Z,46.62
2018-04-27T06:04:32.794Z,43.78
2018-04-27T06:07:00.172Z,45.44
2018-04-27T06:09:27.572Z,43.68
2018-04-27T06:11:55.001Z,44.57
2018-04-27T06:14:22.395Z,44.67
2018-04-27T06:16:49.800Z,41.80
2018-04-27T06:19:17.225Z,42.80
2018-04-27T06:21:44.637Z,41.78
2018-04-27T06:24:12.035Z,39.19
2018-04-27T06:26:39.481Z,42.30
2018-04-27T06:29:06.892Z,41.43
2018-04-27T06:31:34.301Z,39.36
2018-04-27T06:34:01.727Z,40.98
2018-04-27T06:36:29.128Z,39.05
2018-04-27T06:38:56.549Z,39.38
2018-04-27T06:41:23.961Z,39.01
2018-04-27T06:43:51.652Z,37.04
2018-04-27T06:46:19.054Z,36.18
2018-04-27T06:48:46.587Z,36.66
2018-04-27T06:51:14.016Z,34.70
2018-04-27T06:53:41.418Z,36.41
2018-04-27T06:56:08.850Z,37.23
2018-04-27T06:58:36.272Z,36.71
2018-04-27T07:01:03.680Z,34.97
2018-04-27T07:03:31.350Z,36.75
2018-04-27T07:05:58.748Z,35.12
2018-04-27T07:08:26.159Z,35.97
2018-04-27T07:10:53.585Z,34.36
2018-04-27T07:13:20.993Z,34.66
2018-04-27T07:15:48.404Z,35.17
2018-04-27T07:18:15.820Z,33.51
2018-04-27T07:20:43.228Z,34.28
2018-04-27T07:23:10.652Z,35.55
2018-04-27T07:25:38.425Z,34.98
2018-04-27T07:28:05.838Z,34.49
2018-04-27T07:30:33.249Z,33.11
2018-04-27T07:33:00.671Z,34.80
2018-04-27T07:35:28.075Z,33.41
2018-04-27T07:37:55.496Z,33.95
2018-04-27T07:40:22.920Z,33.39
2018-04-27T07:42:50.339Z,33.67
2018-04-27T07:45:17.797Z,32.76
2018-04-27T07:47:45.160Z,33.02
2018-04-27T07:50:12.916Z,33.04
2018-04-27T07:52:40.325Z,32.26
2018-04-27T07:55:07.731Z,33.08
2018-04-27T07:57:35.172Z,34.25
2018-04-27T08:00:02.575Z,34.29
2018-04-27T08:02:30.006Z,32.12
2018-04-27T08:04:57.463Z,32.91
2018-04-27T08:07:24.860Z,33.22
2018-04-27T08:09:52.297Z,34.17
2018-04-27T08:12:20.144Z,34.68
2018-04-27T08:14:47.573Z,35.29
2018-04-27T08:17:14.989Z,35.81
2018-04-27T08:19:42.421Z,36.03
2018-04-27T08:22:09.828Z,36.66
2018-04-27T08:24:37.285Z,35.55
2018-04-27T08:27:04.703Z,35.35
2018-04-27T08:29:32.115Z,35.36
2018-04-27T08:31:59.548Z,34.83
2018-04-27T08:34:26.951Z,35.51
2018-04-27T08:36:54.403Z,35.55
2018-04-27T08:39:21.832Z,36.40
2018-04-27T08:41:49.240Z,35.76
2018-04-27T08:44:16.687Z,36.39
2018-04-27T08:46:44.085Z,36.86
2018-04-27T08:49:11.504Z,36.49
2018-04-27T08:51:38.904Z,35.34
2018-04-27T08:54:06.354Z,36.37
2018-04-27T08:56:33.751Z,36.36
2018-04-27T08:59:01.152Z,35.94
2018-04-27T09:01:28.593Z,36.03
2018-04-27T09:03:55.992Z,36.49
2018-04-27T09:06:24.201Z,36.15
2018-04-27T09:08:51.580Z,36.05
2018-04-27T09:11:19.333Z,35.79
2018-04-27T09:13:46.733Z,36.01
2018-04-27T09:16:14.213Z,35.45
2018-04-27T09:18:41.560Z,34.62
2018-04-27T09:21:08.967Z,35.03
2018-04-27T09:23:36.371Z,34.63
2018-04-27T09:26:04.028Z,34.08
2018-04-27T09:28:31.464Z,34.10
2018-04-27T09:30:58.867Z,34.26
2018-04-27T09:33:26.496Z,34.44
2018-04-27T09:35:54.241Z,33.73
2018-04-27T09:38:21.641Z,35.08
2018-04-27T09:40:49.105Z,34.84
2018-04-27T09:43:16.677Z,34.52
2018-04-27T09:45:44.148Z,35.13
2018-04-27T09:48:11.573Z,35.48
2018-04-27T09:50:39.027Z,35.53
2018-04-27T09:53:06.469Z,36.16
2018-04-27T09:55:33.887Z,36.31
2018-04-27T09:58:01.413Z,37.07
2018-04-27T10:00:28.827Z,36.51
2018-04-27T10:02:56.232Z,36.84
2018-04-27T10:05:23.992Z,36.68
2018-04-27T10:07:51.399Z,35.68
2018-04-27T10:10:18.808Z,37.26
2018-04-27T10:12:46.229Z,37.04
2018-04-27T10:15:14.322Z,37.25
2018-04-27T10:17:41.953Z,36.00
2018-04-27T10:20:09.360Z,36.16
2018-04-27T10:22:36.768Z,35.80
2018-04-27T10:25:04.464Z,36.86
2018-04-27T10:27:32.088Z,36.28
2018-04-27T10:29:59.649Z,35.68
2018-04-27T10:32:27.104Z,36.56
2018-04-27T10:34:54.500Z,36.79
2018-04-27T10:37:22.495Z,36.35
2018-04-27T10:39:49.915Z,36.38
2018-04-27T10:42:17.352Z,36.69
2018-04-27T10:44:44.776Z,36.18
2018-04-27T10:47:12.181Z,36.35
2018-04-27T10:49:39.596Z,36.31
2018-04-27T10:52:07.060Z,35.62
2018-04-27T10:54:34.464Z,35.13
2018-04-27T10:57:01.868Z,35.35
2018-04-27T10:59:30.286Z,36.80
2018-04-27T11:01:57.700Z,35.98
2018-04-27T11:04:25.132Z,37.11
2018-04-27T11:06:52.552Z,37.66
2018-04-27T11:09:19.961Z,36.23
2018-04-27T11:11:47.372Z,35.73
2018-04-27T11:14:14.808Z,36.19
2018-04-27T11:16:42.287Z,36.86
2018-04-27T11:19:09.637Z,35.36
2018-04-27T11:21:37.069Z,36.02
2018-04-27T11:24:04.467Z,36.32
2018-04-27T11:26:32.157Z,35.75
2018-04-27T11:28:59.583Z,35.40
2018-04-27T11:31:26.994Z,36.07
2018-04-27T11:33:54.468Z,35.98
2018-04-27T11:36:21.887Z,36.16
2018-04-27T11:38:49.299Z,35.56
2018-04-27T11:41:16.754Z,34.44
2018-04-27T11:43:44.162Z,34.67
2018-04-27T11:46:11.621Z,34.66
2018-04-27T11:48:39.026Z,34.79
2018-04-27T11:51:06.717Z,34.57
2018-04-27T11:53:34.152Z,35.42
2018-04-27T11:56:01.575Z,33.40
2018-04-27T11:58:29.222Z,32.10
2018-04-27T12:00:56.624Z,33.85
2018-04-27T12:03:24.023Z,34.25
2018-04-27T12:05:51.729Z,34.34
2018-04-27T12:08:19.148Z,33.84
2018-04-27T12:10:46.588Z,33.81
2018-04-27T12:13:14.007Z,33.66
2018-04-27T12:15:41.428Z,33.44
2018-04-27T12:18:08.866Z,33.70
2018-04-27T12:20:36.556Z,32.48
2018-04-27T12:23:03.978Z,32.16
2018-04-27T12:25:31.383Z,31.56
2018-04-27T12:27:58.818Z,33.77
2018-04-27T12:30:26.219Z,34.60
2018-04-27T12:32:53.648Z,34.37
2018-04-27T12:35:21.073Z,34.19
2018-04-27T12:37:48.484Z,33.14
2018-04-27T12:40:15.887Z,33.76
2018-04-27T12:42:43.312Z,33.60
2018-04-27T12:45:10.721Z,33.49
2018-04-27T12:47:38.157Z,32.85
2018-04-27T12:50:05.557Z,33.29
2018-04-27T12:52:32.963Z,32.76
2018-04-27T12:55:00.628Z,32.25
2018-04-27T12:57:28.025Z,32.85
2018-04-27T12:59:55.423Z,32.03
2018-04-27T13:02:22.884Z,32.90
2018-04-27T13:04:50.300Z,33.49
2018-04-27T13:07:17.720Z,33.53
2018-04-27T13:09:45.119Z,32.94
2018-04-27T13:12:12.514Z,32.42
2018-04-27T13:14:39.925Z,33.51
2018-04-27T13:17:07.332Z,33.00
2018-04-27T13:19:34.739Z,32.97
2018-04-27T13:22:02.140Z,34.30
2018-04-27T13:24:29.652Z,33.64
2018-04-27T13:26:57.040Z,34.61
2018-04-27T13:29:24.447Z,34.06
2018-04-27T13:31:51.868Z,33.65
2018-04-27T13:34:19.284Z,33.56
2018-04-27T13:36:46.688Z,33.98
2018-04-27T13:39:14.127Z,34.72
2018-04-27T13:41:41.532Z,33.87
2018-04-27T13:44:08.964Z,33.91
2018-04-27T13:46:36.826Z,34.23
2018-04-27T13:49:04.276Z,34.05
2018-04-27T13:51:31.865Z,34.34
2018-04-27T13:53:59.338Z,35.38
2018-04-27T13:56:26.860Z,34.56
2018-04-27T13:58:54.260Z,33.70
2018-04-27T14:01:21.808Z,34.64
2018-04-27T14:03:49.440Z,34.67
2018-04-27T14:06:16.856Z,35.31
2018-04-27T14:08:44.255Z,32.32
2018-04-27T14:11:11.734Z,33.32
2018-04-27T14:13:39.090Z,33.11
2018-04-27T14:16:06.819Z,33.38
2018-04-27T14:18:34.265Z,33.06
2018-04-27T14:21:01.682Z,32.86
2018-04-27T14:23:29.194Z,33.36
2018-04-27T14:25:56.604Z,32.97
2018-04-27T14:28:24.039Z,33.16
2018-04-27T14:30:51.491Z,32.62
2018-04-27T14:33:18.900Z,32.98
2018-04-27T14:35:46.329Z,33.27
2018-04-27T14:38:14.688Z,33.44
2018-04-27T14:40:42.103Z,33.12
2018-04-27T14:43:09.606Z,33.91
2018-04-27T14:45:37.021Z,33.54
2018-04-27T14:48:04.443Z,33.68
2018-04-27T14:50:31.864Z,33.42
2018-04-27T14:52:59.290Z,33.04
2018-04-27T14:55:27.901Z,33.26
2018-04-27T14:57:55.769Z,33.15
2018-04-27T15:00:23.236Z,32.64
2018-04-27T15:02:50.689Z,31.51
2018-04-27T15:05:18.115Z,32.03
2018-04-27T15:07:45.564Z,32.87
2018-04-27T15:10:12.967Z,32.29
2018-04-27T15:12:40.377Z,32.79
2018-04-27T15:15:07.795Z,32.16
2018-04-27T15:17:35.208Z,33.20
2018-04-27T15:20:02.609Z,33.03
2018-04-27T15:22:30.038Z,33.67
2018-04-27T15:24:57.505Z,33.64
2018-04-27T15:27:24.856Z,34.56
2018-04-27T15:29:52.260Z,33.82
2018-04-27T15:32:19.680Z,35.05
2018-04-27T15:34:47.108Z,36.21
2018-04-27T15:37:14.532Z,35.12
2018-04-27T15:39:41.947Z,34.68
2018-04-27T15:42:09.362Z,35.48
2018-04-27T15:44:36.792Z,36.33
2018-04-27T15:47:04.196Z,36.43
2018-04-27T15:49:31.860Z,35.62
2018-04-27T15:51:59.301Z,35.39
2018-04-27T15:54:26.699Z,35.41
2018-04-27T15:56:54.516Z,35.63
2018-04-27T15:59:21.908Z,36.59
2018-04-27T16:01:49.342Z,35.80
2018-04-27T16:04:16.731Z,35.74
2018-04-27T16:06:44.129Z,36.01
2018-04-27T16:09:11.625Z,35.63
2018-04-27T16:11:38.968Z,35.36
2018-04-27T16:14:06.724Z,36.46
2018-04-27T16:16:34.152Z,36.34
2018-04-27T16:19:02.338Z,36.72
2018-04-27T16:21:29.760Z,36.13
2018-04-27T16:23:58.064Z,36.60
2018-04-27T16:26:25.464Z,36.82
2018-04-27T16:28:52.932Z,36.41
2018-04-27T16:31:20.341Z,36.59
2018-04-27T16:33:47.734Z,37.27
2018-04-27T16:36:15.403Z,37.24
2018-04-27T16:38:42.808Z,36.93
2018-04-27T16:41:10.212Z,37.33
2018-04-27T16:43:37.629Z,38.05
2018-04-27T16:46:05.037Z,38.50
2018-04-27T16:48:32.436Z,38.83
2018-04-27T16:50:59.981Z,38.03
2018-04-27T16:53:27.381Z,37.60
2018-04-27T16:55:54.795Z,37.72
2018-04-27T16:58:22.198Z,38.11
2018-04-27T17:00:49.633Z,39.32
2018-04-27T17:03:17.049Z,39.83
2018-04-27T17:05:44.460Z,40.21
2018-04-27T17:08:12.186Z,40.84
2018-04-27T17:10:39.591Z,41.14
2018-04-27T17:13:06.991Z,41.15
2018-04-27T17:15:34.417Z,41.87
2018-04-27T17:18:01.812Z,41.53
2018-04-27T17:20:29.223Z,41.37
2018-04-27T17:22:56.684Z,41.99
2018-04-27T17:25:24.089Z,41.82
2018-04-27T17:27:51.620Z,42.42
2018-04-27T17:30:19.050Z,42.08
2018-04-27T17:32:46.792Z,42.33
2018-04-27T17:35:14.355Z,42.71
2018-04-27T17:37:41.748Z,42.38
2018-04-27T17:40:09.164Z,42.29
2018-04-27T17:42:36.855Z,42.15
2018-04-27T17:45:04.260Z,42.02
2018-04-27T17:47:31.683Z,42.01
2018-04-27T17:49:59.083Z,41.94
2018-04-27T17:52:26.484Z,41.98
2018-04-27T17:54:53.885Z,41.97
2018-04-27T17:57:21.284Z,42.26
2018-04-27T17:59:48.708Z,42.10
2018-04-27T18:02:16.112Z,42.46
2018-04-27T18:04:43.551Z,42.96
2018-04-27T18:07:10.971Z,42.78
2018-04-27T18:09:38.394Z,43.03
2018-04-27T18:12:06.055Z,43.41
2018-04-27T18:14:33.299Z,43.63
2018-04-27T18:17:00.696Z,43.94
2018-04-27T18:19:28.120Z,44.23
2018-04-27T18:21:55.567Z,44.27
2018-04-27T18:24:23.023Z,44.35
2018-04-27T18:26:50.412Z,44.23
2018-04-27T18:29:17.858Z,44.53
2018-04-27T18:31:45.269Z,44.44
2018-04-27T18:34:12.698Z,44.71
2018-04-27T18:36:40.097Z,44.43
2018-04-27T18:39:07.545Z,44.74
2018-04-27T18:41:34.973Z,45.07
2018-04-27T18:44:02.401Z,45.29
2018-04-27T18:46:29.810Z,45.55
2018-04-27T18:48:57.476Z,45.73
2018-04-27T18:51:24.896Z,45.94
2018-04-27T18:53:52.352Z,46.12
2018-04-27T18:56:22.113Z,46.14
2018-04-27T18:58:52.933Z,46.34
2018-04-27T19:01:20.417Z,46.56
2018-04-27T19:03:47.763Z,46.88
2018-04-27T19:06:15.172Z,47.06
2018-04-27T19:08:42.575Z,47.11
2018-04-27T19:11:10.274Z,47.41
2018-04-27T19:13:37.727Z,47.72
2018-04-27T19:16:05.125Z,47.90
2018-04-27T19:18:32.540Z,47.97
2018-04-27T19:20:59.932Z,48.18
2018-04-27T19:23:30.336Z,48.46
2018-04-27T19:25:58.459Z,48.69
2018-04-27T19:28:30.176Z,48.96
2018-04-27T19:30:58.520Z,49.15
2018-04-27T19:33:25.944Z,49.57
2018-04-27T19:35:53.392Z,50.21
2018-04-27T19:38:20.816Z,50.29
2018-04-27T19:40:48.253Z,50.90
2018-04-27T19:43:15.684Z,50.85
2018-04-27T19:45:43.110Z,51.04
2018-04-27T19:48:10.588Z,51.16
2018-04-27T19:50:38.035Z,51.49
2018-04-27T19:53:05.481Z,51.62
2018-04-27T19:55:32.902Z,51.93
2018-04-27T19:58:00.305Z,52.21
2018-04-27T20:00:28.640Z,52.64
2018-04-27T20:02:56.059Z,52.55
2018-04-27T20:05:23.499Z,53.02
2018-04-27T20:07:51.211Z,53.03
2018-04-27T20:10:19.395Z,53.30
2018-04-27T20:12:46.796Z,54.05
2018-04-27T20:15:14.215Z,54.01
2018-04-27T20:17:44.323Z,55.25
2018-04-27T20:20:29.571Z,57.21
2018-04-27T20:22:56.972Z,57.28
2018-04-27T20:25:24.420Z,56.65
2018-04-27T20:27:51.903Z,57.04
2018-04-27T20:30:19.300Z,57.51
2018-04-27T20:32:47.292Z,58.04
2018-04-27T20:35:15.587Z,58.70
2018-04-27T20:37:43.044Z,59.02
2018-04-27T20:40:12.254Z,59.42
2018-04-27T20:42:44.335Z,59.95
2018-04-27T20:45:20.874Z,61.20
2018-04-27T20:47:48.605Z,61.28
2018-04-27T20:50:16.060Z,60.87
2018-04-27T20:52:43.512Z,60.75
2018-04-27T20:55:16.875Z,61.23
2018-04-27T20:57:44.828Z,61.86
2018-04-27T21:00:12.307Z,61.81
2018-04-27T21:02:43.565Z,62.31
2018-04-27T21:05:11.022Z,62.12
2018-04-27T21:07:38.482Z,62.30
2018-04-27T21:10:06.053Z,63.35
2018-04-27T21:12:35.108Z,63.31
2018-04-27T21:15:06.418Z,63.24
2018-04-27T21:17:34.151Z,63.38
2018-04-27T21:20:01.614Z,63.27
2018-04-27T21:22:29.351Z,63.31
2018-04-27T21:24:56.811Z,63.64
2018-04-27T21:27:24.251Z,63.77
2018-04-27T21:29:51.776Z,64.14
2018-04-27T21:32:19.233Z,64.23
2018-04-27T21:34:46.763Z,64.39
2018-04-27T21:37:14.199Z,64.86
2018-04-27T21:39:41.630Z,65.33
2018-04-27T21:42:20.892Z,65.49
2018-04-27T21:44:57.397Z,66.23
2018-04-27T21:47:29.214Z,66.30
2018-04-27T21:49:58.591Z,67.09
2018-04-27T21:52:31.872Z,67.88
2018-04-27T21:54:59.782Z,67.59
2018-04-27T21:57:35.491Z,67.80
2018-04-27T22:00:05.677Z,68.03
2018-04-27T22:02:36.101Z,67.19
2018-04-27T22:08:00.265Z,66.61
2018-04-27T22:10:28.062Z,67.08
2018-04-27T22:12:56.263Z,68.74
2018-04-27T22:15:24.244Z,69.47
2018-04-27T22:17:51.659Z,68.43
2018-04-27T22:20:20.536Z,69.00
2018-04-27T22:22:47.957Z,68.89
2018-04-27T22:25:27.783Z,70.78
2018-04-27T22:28:03.848Z,69.99
2018-04-27T22:30:34.238Z,70.20
2018-04-27T22:36:19.507Z,71.08
2018-04-27T22:41:59.220Z,69.70
2018-04-27T22:44:27.455Z,69.31
2018-04-27T22:46:54.860Z,69.18
2018-04-27T22:49:22.287Z,69.54
2018-04-27T22:51:49.704Z,69.60
2018-04-27T22:57:16.871Z,71.00
2018-04-27T22:59:45.731Z,71.83
2018-04-27T23:02:19.737Z,72.11
2018-04-27T23:04:49.719Z,72.30
2018-04-27T23:07:23.766Z,72.48
2018-04-27T23:09:54.685Z,71.64
2018-04-27T23:12:22.095Z,71.78
2018-04-27T23:14:50.395Z,71.03
2018-04-27T23:17:17.807Z,70.80
2018-04-27T23:19:50.821Z,70.94
2018-04-27T23:22:30.260Z,71.46
2018-04-27T23:27:58.221Z,72.50
2018-04-27T23:30:25.655Z,72.78
2018-04-27T23:32:53.069Z,73.58
2018-04-27T23:35:21.161Z,72.37
2018-04-27T23:37:48.574Z,72.73
2018-04-27T23:40:16.037Z,72.46
2018-04-27T23:42:44.265Z,71.98
2018-04-27T23:45:11.684Z,72.58
2018-04-27T23:47:39.355Z,72.26
2018-04-27T23:50:06.768Z,72.37
2018-04-27T23:52:34.190Z,72.19
2018-04-27T23:55:01.620Z,73.62
2018-04-27T23:57:31.572Z,72.70
